createdAt,value
2022-10-28T00:01:48.839Z,75.50
2022-10-28T00:04:17.989Z,75.50
2022-10-28T00:06:47.065Z,75.50
2022-10-28T00:09:17.532Z,75.40
2022-10-28T00:11:46.701Z,75.40
2022-10-28T00:14:15.794Z,75.30
2022-10-28T00:16:45.065Z,75.20
2022-10-28T00:19:15.160Z,75.20
2022-10-28T00:21:45.665Z,75.40
2022-10-28T00:24:19.163Z,75.40
2022-10-28T00:26:48.507Z,75.50
2022-10-28T00:29:19.652Z,75.50
2022-10-28T00:31:49.439Z,75.70
2022-10-28T00:34:21.323Z,75.80
2022-10-28T00:36:51.119Z,75.80
2022-10-28T00:39:24.252Z,75.80
2022-10-28T00:41:59.186Z,75.70
2022-10-28T00:44:55.589Z,75.80
2022-10-28T00:47:39.930Z,75.90
2022-10-28T00:50:22.498Z,76.10
2022-10-28T00:52:57.559Z,76.70
2022-10-28T00:55:28.546Z,76.00
2022-10-28T00:57:59.165Z,76.00
2022-10-28T01:00:28.875Z,75.90
2022-10-28T01:02:58.382Z,75.80
2022-10-28T01:05:31.106Z,75.60
2022-10-28T01:08:04.513Z,75.50
2022-10-28T01:11:15.967Z,75.40
2022-10-28T01:14:17.250Z,75.30
2022-10-28T01:17:02.835Z,75.10
2022-10-28T01:20:13.271Z,74.90
2022-10-28T01:22:52.047Z,75.00
2022-10-28T01:26:00.135Z,74.80
2022-10-28T01:29:14.302Z,74.70
2022-10-28T01:31:48.630Z,74.70
2022-10-28T01:34:28.396Z,74.70
2022-10-28T01:37:03.102Z,74.70
2022-10-28T01:39:38.187Z,74.80
2022-10-28T01:42:21.623Z,74.90
2022-10-28T01:44:59.451Z,75.00
2022-10-28T01:47:34.412Z,75.00
2022-10-28T01:50:11.043Z,75.10
2022-10-28T01:52:42.569Z,75.10
2022-10-28T01:55:17.010Z,75.00
2022-10-28T01:57:47.713Z,75.00
2022-10-28T02:00:17.606Z,75.10
2022-10-28T02:02:50.771Z,75.10
2022-10-28T02:05:42.476Z,75.10
2022-10-28T02:08:52.037Z,75.00
2022-10-28T02:11:43.447Z,74.90
2022-10-28T02:14:35.204Z,74.80
2022-10-28T02:17:14.414Z,74.70
2022-10-28T02:19:53.189Z,74.70
2022-10-28T02:22:29.679Z,74.50
2022-10-28T02:25:10.242Z,74.50
2022-10-28T02:27:47.821Z,74.50
2022-10-28T02:30:21.945Z,74.50
2022-10-28T02:32:55.474Z,74.60
2022-10-28T02:35:33.172Z,74.70
2022-10-28T02:38:09.028Z,74.60
2022-10-28T02:40:40.979Z,74.60
2022-10-28T02:43:11.793Z,74.50
2022-10-28T02:45:44.108Z,74.60
2022-10-28T02:48:18.390Z,74.50
2022-10-28T02:50:55.872Z,74.30
2022-10-28T02:53:31.030Z,74.20
2022-10-28T02:56:03.063Z,74.00
2022-10-28T02:58:40.142Z,74.00
2022-10-28T03:01:09.666Z,73.90
2022-10-28T03:03:38.889Z,74.00
2022-10-28T03:06:10.683Z,73.80
2022-10-28T03:08:39.838Z,73.60
2022-10-28T03:11:09.034Z,73.50
2022-10-28T03:13:38.111Z,73.30
2022-10-28T03:16:07.145Z,73.10
2022-10-28T03:18:36.254Z,73.00
2022-10-28T03:21:05.487Z,72.80
2022-10-28T03:23:36.102Z,72.70
2022-10-28T03:26:05.214Z,72.60
2022-10-28T03:28:34.252Z,72.60
2022-10-28T03:31:03.519Z,72.60
2022-10-28T03:33:32.679Z,72.60
2022-10-28T03:36:01.735Z,72.60
2022-10-28T03:38:30.781Z,72.70
2022-10-28T03:41:01.217Z,72.70
2022-10-28T03:43:30.274Z,72.70
2022-10-28T03:45:59.358Z,72.70
2022-10-28T03:48:28.454Z,72.80
2022-10-28T03:50:57.642Z,72.90
2022-10-28T03:53:27.814Z,72.90
2022-10-28T03:56:03.381Z,73.10
2022-10-28T03:58:35.114Z,73.10
2022-10-28T04:01:06.887Z,73.10
2022-10-28T04:03:39.475Z,73.10
2022-10-28T04:06:09.995Z,73.10
2022-10-28T04:08:40.017Z,73.20
2022-10-28T04:11:10.794Z,73.10
2022-10-28T04:13:39.933Z,73.70
2022-10-28T04:16:09.342Z,73.10
2022-10-28T04:18:38.459Z,73.10
2022-10-28T04:21:07.744Z,73.10
2022-10-28T04:23:36.819Z,73.10
2022-10-28T04:26:07.665Z,72.90
2022-10-28T04:28:38.122Z,72.90
2022-10-28T04:31:07.362Z,72.80
2022-10-28T04:33:36.509Z,72.70
2022-10-28T04:36:05.995Z,72.60
2022-10-28T04:38:35.166Z,72.50
2022-10-28T04:41:04.317Z,72.40
2022-10-28T04:43:33.442Z,72.20
2022-10-28T04:46:06.125Z,72.00
2022-10-28T04:48:35.435Z,72.00
2022-10-28T04:51:05.194Z,72.00
2022-10-28T04:53:34.382Z,72.10
2022-10-28T04:56:03.434Z,72.10
2022-10-28T04:58:32.490Z,72.20
2022-10-28T05:01:08.339Z,72.20
2022-10-28T05:03:37.752Z,72.10
2022-10-28T05:06:07.596Z,72.10
2022-10-28T05:08:36.650Z,72.20
2022-10-28T05:11:06.043Z,72.20
2022-10-28T05:13:35.110Z,72.30
2022-10-28T05:16:04.302Z,72.30
2022-10-28T05:18:34.749Z,72.40
2022-10-28T05:21:03.955Z,72.40
2022-10-28T05:23:33.034Z,72.40
2022-10-28T05:26:02.085Z,72.40
2022-10-28T05:28:31.173Z,72.30
2022-10-28T05:31:00.213Z,72.30
2022-10-28T05:33:29.309Z,72.20
2022-10-28T05:36:01.838Z,72.10
2022-10-28T05:38:30.898Z,72.00
2022-10-28T05:41:00.246Z,71.90
2022-10-28T05:43:29.617Z,72.00
2022-10-28T05:45:59.512Z,71.90
2022-10-28T05:48:28.605Z,72.00
2022-10-28T05:50:57.685Z,72.10
2022-10-28T05:53:28.073Z,72.20
2022-10-28T05:55:57.106Z,72.40
2022-10-28T05:58:26.212Z,72.40
2022-10-28T06:00:55.369Z,72.60
2022-10-28T06:03:28.604Z,72.70
2022-10-28T06:06:00.585Z,72.90
2022-10-28T06:08:30.967Z,73.00
2022-10-28T06:10:59.864Z,73.20
2022-10-28T06:13:28.889Z,73.30
2022-10-28T06:15:57.995Z,73.50
2022-10-28T06:18:27.093Z,73.50
2022-10-28T06:20:58.172Z,73.60
2022-10-28T06:23:29.076Z,73.70
2022-10-28T06:26:00.706Z,74.40
2022-10-28T06:28:30.616Z,73.90
2022-10-28T06:31:03.597Z,74.00
2022-10-28T06:33:32.858Z,74.30
2022-10-28T06:36:02.308Z,74.30
2022-10-28T06:38:33.042Z,74.60
2022-10-28T06:41:02.286Z,74.70
2022-10-28T06:43:31.321Z,74.90
2022-10-28T06:46:02.147Z,75.10
2022-10-28T06:48:33.186Z,75.30
2022-10-28T06:51:02.287Z,75.50
2022-10-28T06:53:31.367Z,75.80
2022-10-28T06:56:01.815Z,76.00
2022-10-28T06:58:30.876Z,76.10
2022-10-28T07:01:05.693Z,76.30
2022-10-28T07:03:34.837Z,76.40
2022-10-28T07:06:04.543Z,76.40
2022-10-28T07:08:33.741Z,76.60
2022-10-28T07:11:04.203Z,76.70
2022-10-28T07:13:33.331Z,76.50
2022-10-28T07:16:02.752Z,76.60
2022-10-28T07:18:32.345Z,76.50
2022-10-28T07:21:01.933Z,76.60
2022-10-28T07:23:33.022Z,77.30
2022-10-28T07:26:04.117Z,76.70
2022-10-28T07:28:33.547Z,76.60
2022-10-28T07:31:03.426Z,77.00
2022-10-28T07:33:32.634Z,77.50
2022-10-28T07:36:04.866Z,78.00
2022-10-28T07:38:34.443Z,78.10
2022-10-28T07:41:08.063Z,78.70
2022-10-28T07:43:38.422Z,78.20
2022-10-28T07:46:08.634Z,78.50
2022-10-28T07:48:38.905Z,78.50
2022-10-28T07:51:09.936Z,78.90
2022-10-28T07:53:39.191Z,79.30
2022-10-28T07:56:14.040Z,79.30
2022-10-28T07:58:44.874Z,78.40
2022-10-28T08:01:17.151Z,78.70
2022-10-28T08:03:47.583Z,78.70
2022-10-28T08:06:20.392Z,79.40
2022-10-28T08:08:54.894Z,79.60
2022-10-28T08:11:26.152Z,80.00
2022-10-28T08:13:56.447Z,79.90
2022-10-28T08:16:28.166Z,80.50
2022-10-28T08:18:57.953Z,79.70
2022-10-28T08:21:27.488Z,77.70
2022-10-28T08:23:56.965Z,75.40
2022-10-28T08:26:27.921Z,73.50
2022-10-28T08:28:58.385Z,71.80
2022-10-28T08:31:28.120Z,71.20
2022-10-28T08:33:57.217Z,71.20
2022-10-28T08:36:26.661Z,71.40
2022-10-28T08:38:55.879Z,71.40
2022-10-28T08:41:37.186Z,71.40
2022-10-28T08:44:43.141Z,69.90
2022-10-28T08:47:33.090Z,70.30
2022-10-28T08:50:11.192Z,70.00
2022-10-28T08:52:45.689Z,71.00
2022-10-28T08:55:20.304Z,69.90
2022-10-28T08:57:56.394Z,69.30
2022-10-28T09:00:29.670Z,68.20
2022-10-28T09:03:18.178Z,68.60
2022-10-28T09:05:50.069Z,66.30
2022-10-28T09:08:24.939Z,66.70
2022-10-28T09:11:38.494Z,64.90
2022-10-28T09:14:22.937Z,63.60
2022-10-28T09:17:02.341Z,63.30
2022-10-28T09:19:46.682Z,62.60
2022-10-28T09:22:28.250Z,61.70
2022-10-28T09:25:01.691Z,60.90
2022-10-28T09:27:57.870Z,60.60
2022-10-28T09:30:37.626Z,58.20
2022-10-28T09:33:19.808Z,58.20
2022-10-28T09:35:50.092Z,57.00
2022-10-28T09:38:27.515Z,57.50
2022-10-28T09:41:04.184Z,56.60
2022-10-28T09:43:36.468Z,56.60
2022-10-28T09:46:13.644Z,56.80
2022-10-28T09:48:47.232Z,56.30
2022-10-28T09:51:30.904Z,56.50
2022-10-28T09:54:02.097Z,55.40
2022-10-28T09:56:32.151Z,56.00
2022-10-28T09:59:03.814Z,55.70
2022-10-28T10:01:37.944Z,55.50
2022-10-28T10:04:19.533Z,55.30
2022-10-28T10:06:53.589Z,55.20
2022-10-28T10:09:27.948Z,55.60
2022-10-28T10:12:16.127Z,55.50
2022-10-28T10:15:07.822Z,56.10
2022-10-28T10:18:00.766Z,56.10
2022-10-28T10:20:47.796Z,56.40
2022-10-28T10:23:31.331Z,56.20
2022-10-28T10:26:08.027Z,55.40
2022-10-28T10:28:45.298Z,55.70
2022-10-28T10:31:21.541Z,55.50
2022-10-28T10:33:54.873Z,55.10
2022-10-28T10:36:28.777Z,55.10
2022-10-28T10:38:59.955Z,55.30
2022-10-28T10:41:37.305Z,55.30
2022-10-28T10:44:33.919Z,55.00
2022-10-28T10:47:23.073Z,54.70
2022-10-28T10:49:55.509Z,54.80
2022-10-28T10:52:26.248Z,55.30
2022-10-28T10:55:04.644Z,55.40
2022-10-28T10:57:34.375Z,55.10
2022-10-28T11:00:05.356Z,55.60
2022-10-28T11:02:39.792Z,55.90
2022-10-28T11:05:11.930Z,56.50
2022-10-28T11:07:48.925Z,56.80
2022-10-28T11:10:27.225Z,56.90
2022-10-28T11:12:58.780Z,57.00
2022-10-28T11:15:30.931Z,57.30
2022-10-28T11:18:03.549Z,57.10
2022-10-28T11:20:47.339Z,57.00
2022-10-28T11:23:35.231Z,56.20
2022-10-28T11:26:09.015Z,55.80
2022-10-28T11:28:58.797Z,55.90
2022-10-28T11:31:53.475Z,54.80
2022-10-28T11:34:57.004Z,54.30
2022-10-28T11:37:43.701Z,54.10
2022-10-28T11:40:30.561Z,53.80
2022-10-28T11:43:20.877Z,53.60
2022-10-28T11:46:03.119Z,53.50
2022-10-28T11:48:47.768Z,53.60
2022-10-28T11:51:31.263Z,53.50
2022-10-28T11:54:32.763Z,53.40
2022-10-28T11:57:08.222Z,53.10
2022-10-28T12:00:16.480Z,53.40
2022-10-28T12:03:05.809Z,52.90
2022-10-28T12:05:43.336Z,53.00
2022-10-28T12:08:36.658Z,53.10
2022-10-28T12:11:21.652Z,53.00
2022-10-28T12:16:45.077Z,53.40
2022-10-28T12:19:20.911Z,53.60
2022-10-28T12:22:02.559Z,53.50
2022-10-28T12:24:36.554Z,53.40
2022-10-28T12:27:17.084Z,53.80
2022-10-28T12:29:53.371Z,53.50
2022-10-28T12:32:27.521Z,53.80
2022-10-28T12:35:05.421Z,53.80
2022-10-28T12:37:43.475Z,53.80
2022-10-28T12:40:20.771Z,53.80
2022-10-28T12:42:57.860Z,53.90
2022-10-28T12:45:28.391Z,53.80
2022-10-28T12:48:05.113Z,54.60
2022-10-28T12:50:46.720Z,53.80
2022-10-28T12:53:35.285Z,53.80
2022-10-28T12:56:08.999Z,53.70
2022-10-28T12:58:55.177Z,54.00
2022-10-28T13:01:29.043Z,53.80
2022-10-28T13:03:58.400Z,54.00
2022-10-28T13:07:11.557Z,54.10
2022-10-28T13:09:52.292Z,53.60
2022-10-28T13:12:58.097Z,53.50
2022-10-28T13:15:54.310Z,53.20
2022-10-28T13:19:13.703Z,53.30
2022-10-28T13:22:20.600Z,53.20
2022-10-28T13:24:59.503Z,53.30
2022-10-28T13:27:28.979Z,53.50
2022-10-28T13:30:02.941Z,53.70
2022-10-28T13:32:38.880Z,53.60
2022-10-28T13:35:22.743Z,53.50
2022-10-28T13:37:54.539Z,53.30
2022-10-28T13:41:21.283Z,53.40
2022-10-28T13:44:16.195Z,53.00
2022-10-28T13:47:26.290Z,52.90
2022-10-28T13:50:34.835Z,52.70
2022-10-28T13:53:54.120Z,52.60
2022-10-28T13:56:48.410Z,52.50
2022-10-28T13:59:25.906Z,52.50
2022-10-28T14:02:33.871Z,52.50
2022-10-28T14:05:08.289Z,52.20
2022-10-28T14:07:52.342Z,52.40
2022-10-28T14:10:26.683Z,52.30
2022-10-28T14:12:59.650Z,52.30
2022-10-28T14:15:32.486Z,52.40
2022-10-28T14:18:22.642Z,52.40
2022-10-28T14:21:01.681Z,52.40
2022-10-28T14:24:10.203Z,52.40
2022-10-28T14:27:43.341Z,52.30
2022-10-28T14:30:30.533Z,52.50
2022-10-28T14:33:23.153Z,52.50
2022-10-28T14:36:23.606Z,52.70
2022-10-28T14:39:25.417Z,52.80
2022-10-28T14:42:23.226Z,53.00
2022-10-28T14:45:12.480Z,53.10
2022-10-28T14:48:34.653Z,53.20
2022-10-28T14:51:05.044Z,53.10
2022-10-28T14:53:36.258Z,53.20
2022-10-28T14:56:11.007Z,53.20
2022-10-28T14:58:42.744Z,53.20
2022-10-28T15:01:28.314Z,53.30
2022-10-28T15:04:02.973Z,53.20
2022-10-28T15:06:37.489Z,53.30
2022-10-28T15:09:17.225Z,53.30
2022-10-28T15:11:51.680Z,53.20
2022-10-28T15:14:35.244Z,53.20
2022-10-28T15:17:14.582Z,53.20
2022-10-28T15:19:44.631Z,53.20
2022-10-28T15:22:21.207Z,53.20
2022-10-28T15:25:02.325Z,53.20
2022-10-28T15:27:35.458Z,53.20
2022-10-28T15:30:05.513Z,53.20
2022-10-28T15:32:36.579Z,53.20
2022-10-28T15:35:40.888Z,53.10
2022-10-28T15:38:43.135Z,53.00
2022-10-28T15:41:43.819Z,52.90
2022-10-28T15:44:37.896Z,53.00
2022-10-28T15:47:24.530Z,52.90
2022-10-28T15:50:06.123Z,52.90
2022-10-28T15:52:39.047Z,53.00
2022-10-28T15:58:40.107Z,52.90
2022-10-28T16:01:29.404Z,52.90
2022-10-28T16:03:58.927Z,53.00
2022-10-28T16:06:31.896Z,53.00
2022-10-28T16:09:05.954Z,53.00
2022-10-28T16:11:39.442Z,53.10
2022-10-28T16:14:32.426Z,53.10
2022-10-28T16:17:16.871Z,52.90
2022-10-28T16:19:52.508Z,52.90
2022-10-28T16:22:24.988Z,52.90
2022-10-28T16:24:55.206Z,52.90
2022-10-28T16:27:27.075Z,53.00
2022-10-28T16:29:56.333Z,52.90
2022-10-28T16:32:32.765Z,52.90
2022-10-28T16:35:05.171Z,52.90
2022-10-28T16:37:38.338Z,52.80
2022-10-28T16:40:30.881Z,53.50
2022-10-28T16:43:01.533Z,52.80
2022-10-28T16:45:30.725Z,52.80
2022-10-28T16:48:01.152Z,52.80
2022-10-28T16:50:30.247Z,52.80
2022-10-28T16:52:59.246Z,52.80
2022-10-28T16:55:29.618Z,52.70
2022-10-28T16:57:58.731Z,52.70
2022-10-28T17:00:27.784Z,52.70
2022-10-28T17:02:56.978Z,52.70
2022-10-28T17:05:27.661Z,52.70
2022-10-28T17:07:58.132Z,52.70
2022-10-28T17:10:28.608Z,52.60
2022-10-28T17:12:58.080Z,52.70
2022-10-28T17:15:27.413Z,52.60
2022-10-28T17:17:57.969Z,52.60
2022-10-28T17:20:28.483Z,52.40
2022-10-28T17:22:58.835Z,52.40
2022-10-28T17:25:28.654Z,52.30
2022-10-28T17:27:58.158Z,52.30
2022-10-28T17:30:27.817Z,52.30
2022-10-28T17:32:56.900Z,52.30
2022-10-28T17:35:27.418Z,52.20
2022-10-28T17:37:57.423Z,52.20
2022-10-28T17:40:26.785Z,52.20
2022-10-28T17:42:59.604Z,52.10
2022-10-28T17:45:28.700Z,52.00
2022-10-28T17:48:01.341Z,52.00
2022-10-28T17:50:31.764Z,52.00
2022-10-28T17:53:00.832Z,52.00
2022-10-28T17:55:30.057Z,51.90
2022-10-28T17:57:59.378Z,51.90
2022-10-28T18:00:28.792Z,51.80
2022-10-28T18:02:58.195Z,51.80
2022-10-28T18:05:27.405Z,51.80
2022-10-28T18:07:58.258Z,51.80
2022-10-28T18:10:27.668Z,51.80
2022-10-28T18:12:57.175Z,51.80
2022-10-28T18:15:26.580Z,51.80
2022-10-28T18:17:55.581Z,51.80
2022-10-28T18:20:24.612Z,51.80
2022-10-28T18:22:58.604Z,51.80
2022-10-28T18:25:27.834Z,51.80
2022-10-28T18:27:57.203Z,51.80
2022-10-28T18:30:26.864Z,52.10
2022-10-28T18:32:56.145Z,52.50
2022-10-28T18:35:25.434Z,52.50
2022-10-28T18:37:55.030Z,52.40
2022-10-28T18:40:25.736Z,52.30
2022-10-28T18:42:55.186Z,52.30
2022-10-28T18:45:24.521Z,52.30
2022-10-28T18:47:53.942Z,52.30
2022-10-28T18:50:23.536Z,52.30
2022-10-28T18:52:52.784Z,52.20
2022-10-28T18:55:22.092Z,52.10
2022-10-28T18:57:52.928Z,52.10
2022-10-28T19:00:22.700Z,52.10
2022-10-28T19:05:27.037Z,52.10
2022-10-28T19:07:56.790Z,52.10
2022-10-28T19:10:28.973Z,52.10
2022-10-28T19:13:00.105Z,52.20
2022-10-28T19:15:29.505Z,52.20
2022-10-28T19:17:58.866Z,52.20
2022-10-28T19:20:27.982Z,52.40
2022-10-28T19:22:57.516Z,53.00
2022-10-28T19:25:26.988Z,52.20
2022-10-28T19:27:56.116Z,52.20
2022-10-28T19:30:27.037Z,52.10
2022-10-28T19:32:57.020Z,52.10
2022-10-28T19:35:26.282Z,52.10
2022-10-28T19:37:55.448Z,52.20
2022-10-28T19:40:24.601Z,52.20
2022-10-28T19:42:55.061Z,52.10
2022-10-28T19:45:26.029Z,52.10
2022-10-28T19:47:55.663Z,51.90
2022-10-28T19:50:25.003Z,51.90
2022-10-28T19:52:54.085Z,52.00
2022-10-28T19:55:23.159Z,51.90
2022-10-28T19:57:53.005Z,52.00
2022-10-28T20:00:22.482Z,51.90
2022-10-28T20:02:52.946Z,52.00
2022-10-28T20:05:22.071Z,52.00
2022-10-28T20:07:53.485Z,51.90
2022-10-28T20:10:23.061Z,52.00
2022-10-28T20:12:52.606Z,52.10
2022-10-28T20:15:21.858Z,51.90
2022-10-28T20:17:52.385Z,51.90
2022-10-28T20:20:21.479Z,52.00
2022-10-28T20:22:50.596Z,51.90
2022-10-28T20:25:19.769Z,52.00
2022-10-28T20:27:50.580Z,52.00
2022-10-28T20:30:19.645Z,52.10
2022-10-28T20:32:51.945Z,52.10
2022-10-28T20:35:26.110Z,52.20
2022-10-28T20:37:55.725Z,52.10
2022-10-28T20:40:24.914Z,52.20
2022-10-28T20:42:54.292Z,52.20
2022-10-28T20:45:23.480Z,52.20
2022-10-28T20:47:54.861Z,52.20
2022-10-28T20:50:25.360Z,52.20
2022-10-28T20:52:55.286Z,52.30
2022-10-28T20:55:24.551Z,52.30
2022-10-28T20:57:53.606Z,52.30
2022-10-28T21:00:22.796Z,52.10
2022-10-28T21:02:56.853Z,52.10
2022-10-28T21:05:27.639Z,52.10
2022-10-28T21:07:57.474Z,52.10
2022-10-28T21:10:29.917Z,52.10
2022-10-28T21:12:59.231Z,52.10
2022-10-28T21:15:28.632Z,52.20
2022-10-28T21:17:58.020Z,52.30
2022-10-28T21:20:29.368Z,52.40
2022-10-28T21:23:00.340Z,52.50
2022-10-28T21:25:29.568Z,52.50
2022-10-28T21:27:59.973Z,52.50
2022-10-28T21:30:29.948Z,52.50
2022-10-28T21:32:59.956Z,52.50
2022-10-28T21:35:30.591Z,52.50
2022-10-28T21:37:59.888Z,52.60
2022-10-28T21:40:28.921Z,52.70
2022-10-28T21:42:57.998Z,52.80
2022-10-28T21:45:27.032Z,52.70
2022-10-28T21:47:56.488Z,52.70
2022-10-28T21:50:25.951Z,52.60
2022-10-28T21:55:42.048Z,52.60
2022-10-28T21:58:17.570Z,52.60
2022-10-28T22:00:47.082Z,52.80
2022-10-28T22:03:16.867Z,52.80
2022-10-28T22:05:51.645Z,52.80
2022-10-28T22:08:22.288Z,52.90
2022-10-28T22:10:51.432Z,52.80
2022-10-28T22:13:20.532Z,52.80
2022-10-28T22:15:59.290Z,52.80
2022-10-28T22:18:30.160Z,52.90
2022-10-28T22:21:05.145Z,52.80
2022-10-28T22:23:36.807Z,52.80
2022-10-28T22:26:08.355Z,52.80
2022-10-28T22:28:37.900Z,52.80
2022-10-28T22:31:09.953Z,52.80
2022-10-28T22:33:39.962Z,52.80
2022-10-28T22:36:11.656Z,52.80
2022-10-28T22:38:42.941Z,52.80
2022-10-28T22:41:15.728Z,52.80
2022-10-28T22:43:46.953Z,52.90
2022-10-28T22:46:17.112Z,52.90
2022-10-28T22:48:47.527Z,52.70
2022-10-28T22:51:17.499Z,52.80
2022-10-28T22:53:48.490Z,52.80
2022-10-28T22:56:21.230Z,52.80
2022-10-28T22:58:54.421Z,52.80
2022-10-28T23:01:25.421Z,52.80
2022-10-28T23:03:56.267Z,52.80
2022-10-28T23:06:27.957Z,52.90
2022-10-28T23:08:58.784Z,52.90
2022-10-28T23:11:27.892Z,53.00
2022-10-28T23:13:57.681Z,53.00
2022-10-28T23:16:27.103Z,53.00
2022-10-28T23:18:56.276Z,53.00
2022-10-28T23:21:27.161Z,53.10
2022-10-28T23:23:59.851Z,53.10
2022-10-28T23:26:30.578Z,53.20
2022-10-28T23:29:01.563Z,53.30
2022-10-28T23:31:30.903Z,53.40
2022-10-28T23:34:00.116Z,53.40
2022-10-28T23:36:29.276Z,53.50
2022-10-28T23:38:59.795Z,53.60
2022-10-28T23:41:28.800Z,53.70
2022-10-28T23:44:00.553Z,53.80
2022-10-28T23:46:33.613Z,53.80
2022-10-28T23:49:06.040Z,53.90
2022-10-28T23:51:35.068Z,54.00
2022-10-28T23:54:05.789Z,54.00
2022-10-28T23:56:34.871Z,54.00
2022-10-28T23:59:03.896Z,54.00
